sensor_id;sensor_type;location;lat;lon;timestamp;P1;durP1;ratioP1;P2;durP2;ratioP2
20080;SDS011;10200;49.232;9.222;2022-08-19T00:01:12;9.10;;;8.15;;
20080;SDS011;10200;49.232;9.222;2022-08-19T00:03:38;9.70;;;7.72;;
20080;SDS011;10200;49.232;9.222;2022-08-19T00:06:04;10.60;;;8.20;;
20080;SDS011;10200;49.232;9.222;2022-08-19T00:08:29;8.52;;;7.63;;
20080;SDS011;10200;49.232;9.222;2022-08-19T00:10:55;9.75;;;8.27;;
20080;SDS011;10200;49.232;9.222;2022-08-19T00:13:21;9.82;;;8.25;;
20080;SDS011;10200;49.232;9.222;2022-08-19T00:15:46;11.27;;;9.00;;
20080;SDS011;10200;49.232;9.222;2022-08-19T00:18:12;10.55;;;8.77;;
20080;SDS011;10200;49.232;9.222;2022-08-19T00:20:38;10.13;;;8.50;;
20080;SDS011;10200;49.232;9.222;2022-08-19T00:23:05;10.43;;;8.75;;
20080;SDS011;10200;49.232;9.222;2022-08-19T00:25:31;10.50;;;8.88;;
20080;SDS011;10200;49.232;9.222;2022-08-19T00:27:57;9.02;;;8.13;;
20080;SDS011;10200;49.232;9.222;2022-08-19T00:30:24;10.25;;;8.73;;
20080;SDS011;10200;49.232;9.222;2022-08-19T00:32:51;8.45;;;7.63;;
20080;SDS011;10200;49.232;9.222;2022-08-19T00:35:20;10.30;;;8.77;;
20080;SDS011;10200;49.232;9.222;2022-08-19T00:37:47;10.00;;;8.75;;
20080;SDS011;10200;49.232;9.222;2022-08-19T00:40:13;8.75;;;7.85;;
20080;SDS011;10200;49.232;9.222;2022-08-19T00:42:40;11.45;;;8.65;;
20080;SDS011;10200;49.232;9.222;2022-08-19T00:45:09;10.40;;;9.40;;
20080;SDS011;10200;49.232;9.222;2022-08-19T00:47:39;9.90;;;8.85;;
20080;SDS011;10200;49.232;9.222;2022-08-19T00:50:05;10.15;;;8.75;;
20080;SDS011;10200;49.232;9.222;2022-08-19T00:52:33;8.50;;;7.68;;
20080;SDS011;10200;49.232;9.222;2022-08-19T00:55:05;9.43;;;8.25;;
20080;SDS011;10200;49.232;9.222;2022-08-19T00:57:36;9.60;;;7.88;;
20080;SDS011;10200;49.232;9.222;2022-08-19T01:00:07;10.52;;;9.45;;
20080;SDS011;10200;49.232;9.222;2022-08-19T01:02:37;11.20;;;9.75;;
20080;SDS011;10200;49.232;9.222;2022-08-19T01:05:05;9.07;;;8.10;;
20080;SDS011;10200;49.232;9.222;2022-08-19T01:07:33;11.70;;;9.32;;
20080;SDS011;10200;49.232;9.222;2022-08-19T01:10:00;11.00;;;7.95;;
20080;SDS011;10200;49.232;9.222;2022-08-19T01:12:26;8.82;;;7.93;;
20080;SDS011;10200;49.232;9.222;2022-08-19T01:14:52;9.95;;;8.95;;
20080;SDS011;10200;49.232;9.222;2022-08-19T01:17:18;9.43;;;8.52;;
20080;SDS011;10200;49.232;9.222;2022-08-19T01:19:44;10.20;;;9.18;;
20080;SDS011;10200;49.232;9.222;2022-08-19T01:22:16;10.73;;;9.18;;
20080;SDS011;10200;49.232;9.222;2022-08-19T01:24:47;9.63;;;8.63;;
20080;SDS011;10200;49.232;9.222;2022-08-19T01:27:13;11.25;;;9.20;;
20080;SDS011;10200;49.232;9.222;2022-08-19T01:29:40;9.85;;;8.85;;
20080;SDS011;10200;49.232;9.222;2022-08-19T01:32:08;10.68;;;9.57;;
20080;SDS011;10200;49.232;9.222;2022-08-19T01:34:36;10.30;;;8.57;;
20080;SDS011;10200;49.232;9.222;2022-08-19T01:37:05;10.02;;;8.68;;
20080;SDS011;10200;49.232;9.222;2022-08-19T01:39:33;10.43;;;9.32;;
20080;SDS011;10200;49.232;9.222;2022-08-19T01:41:59;10.35;;;9.15;;
20080;SDS011;10200;49.232;9.222;2022-08-19T01:44:28;9.85;;;8.85;;
20080;SDS011;10200;49.232;9.222;2022-08-19T01:46:53;11.90;;;10.70;;
20080;SDS011;10200;49.232;9.222;2022-08-19T01:49:20;12.02;;;9.25;;
20080;SDS011;10200;49.232;9.222;2022-08-19T01:51:50;11.05;;;9.63;;
20080;SDS011;10200;49.232;9.222;2022-08-19T01:54:16;10.90;;;9.80;;
20080;SDS011;10200;49.232;9.222;2022-08-19T01:56:43;12.20;;;9.93;;
20080;SDS011;10200;49.232;9.222;2022-08-19T01:59:19;12.18;;;9.98;;
20080;SDS011;10200;49.232;9.222;2022-08-19T02:01:47;10.55;;;9.23;;
20080;SDS011;10200;49.232;9.222;2022-08-19T02:04:12;12.95;;;10.18;;
20080;SDS011;10200;49.232;9.222;2022-08-19T02:06:39;13.85;;;10.40;;
20080;SDS011;10200;49.232;9.222;2022-08-19T02:09:05;12.32;;;9.70;;
20080;SDS011;10200;49.232;9.222;2022-08-19T02:11:33;12.55;;;10.27;;
20080;SDS011;10200;49.232;9.222;2022-08-19T02:14:01;14.45;;;11.13;;
20080;SDS011;10200;49.232;9.222;2022-08-19T02:16:30;12.27;;;10.00;;
20080;SDS011;10200;49.232;9.222;2022-08-19T02:18:57;12.45;;;10.05;;
20080;SDS011;10200;49.232;9.222;2022-08-19T02:21:25;10.48;;;9.38;;
20080;SDS011;10200;49.232;9.222;2022-08-19T02:23:52;12.05;;;10.13;;
20080;SDS011;10200;49.232;9.222;2022-08-19T02:26:18;11.07;;;9.88;;
20080;SDS011;10200;49.232;9.222;2022-08-19T02:28:44;13.30;;;10.65;;
20080;SDS011;10200;49.232;9.222;2022-08-19T02:31:11;11.02;;;9.93;;
20080;SDS011;10200;49.232;9.222;2022-08-19T02:33:38;12.02;;;10.15;;
20080;SDS011;10200;49.232;9.222;2022-08-19T02:36:04;12.93;;;11.52;;
20080;SDS011;10200;49.232;9.222;2022-08-19T02:38:30;12.48;;;11.18;;
20080;SDS011;10200;49.232;9.222;2022-08-19T02:41:00;13.15;;;11.05;;
20080;SDS011;10200;49.232;9.222;2022-08-19T02:43:28;15.15;;;11.13;;
20080;SDS011;10200;49.232;9.222;2022-08-19T02:45:56;13.70;;;11.35;;
20080;SDS011;10200;49.232;9.222;2022-08-19T02:48:22;13.40;;;10.75;;
20080;SDS011;10200;49.232;9.222;2022-08-19T02:50:49;13.20;;;10.30;;
20080;SDS011;10200;49.232;9.222;2022-08-19T02:53:19;11.18;;;9.60;;
20080;SDS011;10200;49.232;9.222;2022-08-19T02:55:47;14.45;;;11.98;;
20080;SDS011;10200;49.232;9.222;2022-08-19T02:58:13;12.93;;;10.88;;
20080;SDS011;10200;49.232;9.222;2022-08-19T03:00:44;14.77;;;11.50;;
20080;SDS011;10200;49.232;9.222;2022-08-19T03:03:11;13.75;;;11.20;;
20080;SDS011;10200;49.232;9.222;2022-08-19T03:05:37;14.10;;;11.68;;
20080;SDS011;10200;49.232;9.222;2022-08-19T03:08:03;15.90;;;11.25;;
20080;SDS011;10200;49.232;9.222;2022-08-19T03:10:29;14.63;;;10.95;;
20080;SDS011;10200;49.232;9.222;2022-08-19T03:12:54;12.43;;;10.70;;
20080;SDS011;10200;49.232;9.222;2022-08-19T03:15:20;13.43;;;11.10;;
20080;SDS011;10200;49.232;9.222;2022-08-19T03:17:45;13.30;;;11.05;;
20080;SDS011;10200;49.232;9.222;2022-08-19T03:20:11;11.75;;;9.73;;
20080;SDS011;10200;49.232;9.222;2022-08-19T03:22:37;12.82;;;11.23;;
20080;SDS011;10200;49.232;9.222;2022-08-19T03:25:03;12.80;;;10.85;;
20080;SDS011;10200;49.232;9.222;2022-08-19T03:27:29;12.90;;;10.25;;
20080;SDS011;10200;49.232;9.222;2022-08-19T03:29:54;13.13;;;10.32;;
20080;SDS011;10200;49.232;9.222;2022-08-19T03:32:20;13.27;;;10.43;;
20080;SDS011;10200;49.232;9.222;2022-08-19T03:34:46;14.10;;;11.50;;
20080;SDS011;10200;49.232;9.222;2022-08-19T03:37:13;13.05;;;11.35;;
20080;SDS011;10200;49.232;9.222;2022-08-19T03:39:39;15.50;;;11.50;;
20080;SDS011;10200;49.232;9.222;2022-08-19T03:42:05;13.63;;;11.18;;
20080;SDS011;10200;49.232;9.222;2022-08-19T03:44:31;12.80;;;10.35;;
20080;SDS011;10200;49.232;9.222;2022-08-19T03:46:58;15.63;;;11.90;;
20080;SDS011;10200;49.232;9.222;2022-08-19T03:49:25;14.80;;;11.45;;
20080;SDS011;10200;49.232;9.222;2022-08-19T03:51:53;14.73;;;11.10;;
20080;SDS011;10200;49.232;9.222;2022-08-19T03:54:21;12.65;;;10.43;;
20080;SDS011;10200;49.232;9.222;2022-08-19T03:56:48;15.13;;;11.55;;
20080;SDS011;10200;49.232;9.222;2022-08-19T03:59:17;14.60;;;12.07;;
20080;SDS011;10200;49.232;9.222;2022-08-19T04:01:45;15.07;;;11.95;;
20080;SDS011;10200;49.232;9.222;2022-08-19T04:04:11;13.00;;;10.38;;
20080;SDS011;10200;49.232;9.222;2022-08-19T04:06:37;15.95;;;11.35;;
20080;SDS011;10200;49.232;9.222;2022-08-19T04:09:05;14.18;;;11.30;;
20080;SDS011;10200;49.232;9.222;2022-08-19T04:11:34;12.52;;;11.23;;
20080;SDS011;10200;49.232;9.222;2022-08-19T04:14:06;15.90;;;11.27;;
20080;SDS011;10200;49.232;9.222;2022-08-19T04:16:33;11.00;;;9.43;;
20080;SDS011;10200;49.232;9.222;2022-08-19T04:19:02;14.90;;;11.20;;
20080;SDS011;10200;49.232;9.222;2022-08-19T04:21:30;15.65;;;11.23;;
20080;SDS011;10200;49.232;9.222;2022-08-19T04:23:56;22.17;;;13.93;;
20080;SDS011;10200;49.232;9.222;2022-08-19T04:26:24;16.15;;;12.57;;
20080;SDS011;10200;49.232;9.222;2022-08-19T04:28:53;19.98;;;12.57;;
20080;SDS011;10200;49.232;9.222;2022-08-19T04:31:23;19.25;;;12.45;;
20080;SDS011;10200;49.232;9.222;2022-08-19T04:33:58;17.50;;;13.27;;
20080;SDS011;10200;49.232;9.222;2022-08-19T04:36:29;18.95;;;12.57;;
20080;SDS011;10200;49.232;9.222;2022-08-19T04:38:58;16.95;;;11.27;;
20080;SDS011;10200;49.232;9.222;2022-08-19T04:41:26;14.07;;;10.98;;
20080;SDS011;10200;49.232;9.222;2022-08-19T04:44:11;15.50;;;11.15;;
20080;SDS011;10200;49.232;9.222;2022-08-19T04:46:37;13.60;;;11.15;;
20080;SDS011;10200;49.232;9.222;2022-08-19T04:49:04;14.35;;;11.27;;
20080;SDS011;10200;49.232;9.222;2022-08-19T04:51:31;14.75;;;11.25;;
20080;SDS011;10200;49.232;9.222;2022-08-19T04:53:58;13.60;;;11.23;;
20080;SDS011;10200;49.232;9.222;2022-08-19T04:56:25;15.07;;;11.18;;
20080;SDS011;10200;49.232;9.222;2022-08-19T04:58:52;14.30;;;10.70;;
20080;SDS011;10200;49.232;9.222;2022-08-19T05:01:20;12.75;;;10.45;;
20080;SDS011;10200;49.232;9.222;2022-08-19T05:03:47;18.02;;;12.10;;
20080;SDS011;10200;49.232;9.222;2022-08-19T05:06:14;13.85;;;11.05;;
20080;SDS011;10200;49.232;9.222;2022-08-19T05:08:41;14.70;;;11.68;;
20080;SDS011;10200;49.232;9.222;2022-08-19T05:11:30;19.45;;;12.57;;
20080;SDS011;10200;49.232;9.222;2022-08-19T05:13:56;15.50;;;11.90;;
20080;SDS011;10200;49.232;9.222;2022-08-19T05:16:22;15.77;;;12.15;;
20080;SDS011;10200;49.232;9.222;2022-08-19T05:18:49;15.57;;;11.90;;
20080;SDS011;10200;49.232;9.222;2022-08-19T05:21:34;13.77;;;11.40;;
20080;SDS011;10200;49.232;9.222;2022-08-19T05:24:20;14.93;;;11.40;;
20080;SDS011;10200;49.232;9.222;2022-08-19T05:26:47;16.85;;;12.20;;
20080;SDS011;10200;49.232;9.222;2022-08-19T05:29:16;15.73;;;11.50;;
20080;SDS011;10200;49.232;9.222;2022-08-19T05:31:44;14.68;;;11.57;;
20080;SDS011;10200;49.232;9.222;2022-08-19T05:34:10;15.45;;;11.00;;
20080;SDS011;10200;49.232;9.222;2022-08-19T05:36:37;13.15;;;10.73;;
20080;SDS011;10200;49.232;9.222;2022-08-19T05:39:07;15.40;;;10.98;;
20080;SDS011;10200;49.232;9.222;2022-08-19T05:41:35;16.98;;;11.40;;
20080;SDS011;10200;49.232;9.222;2022-08-19T05:44:05;14.50;;;10.70;;
20080;SDS011;10200;49.232;9.222;2022-08-19T05:46:34;14.13;;;11.60;;
20080;SDS011;10200;49.232;9.222;2022-08-19T05:49:02;49.42;;;13.02;;
20080;SDS011;10200;49.232;9.222;2022-08-19T05:51:29;13.52;;;10.65;;
20080;SDS011;10200;49.232;9.222;2022-08-19T05:53:55;12.18;;;9.95;;
20080;SDS011;10200;49.232;9.222;2022-08-19T05:56:21;14.32;;;10.77;;
20080;SDS011;10200;49.232;9.222;2022-08-19T05:58:46;15.05;;;11.00;;
20080;SDS011;10200;49.232;9.222;2022-08-19T06:01:13;16.75;;;12.30;;
20080;SDS011;10200;49.232;9.222;2022-08-19T06:03:41;13.32;;;10.13;;
20080;SDS011;10200;49.232;9.222;2022-08-19T06:06:08;13.93;;;10.20;;
20080;SDS011;10200;49.232;9.222;2022-08-19T06:08:35;13.23;;;11.13;;
20080;SDS011;10200;49.232;9.222;2022-08-19T06:11:13;14.07;;;11.02;;
20080;SDS011;10200;49.232;9.222;2022-08-19T06:13:39;15.30;;;10.57;;
20080;SDS011;10200;49.232;9.222;2022-08-19T06:16:04;14.50;;;11.18;;
20080;SDS011;10200;49.232;9.222;2022-08-19T06:18:30;12.35;;;9.93;;
20080;SDS011;10200;49.232;9.222;2022-08-19T06:20:56;13.38;;;10.02;;
20080;SDS011;10200;49.232;9.222;2022-08-19T06:23:21;14.88;;;10.25;;
20080;SDS011;10200;49.232;9.222;2022-08-19T06:25:47;13.05;;;10.18;;
20080;SDS011;10200;49.232;9.222;2022-08-19T06:28:12;13.85;;;10.27;;
20080;SDS011;10200;49.232;9.222;2022-08-19T06:30:38;12.52;;;9.65;;
20080;SDS011;10200;49.232;9.222;2022-08-19T06:33:04;13.75;;;9.93;;
20080;SDS011;10200;49.232;9.222;2022-08-19T06:35:29;13.07;;;10.05;;
20080;SDS011;10200;49.232;9.222;2022-08-19T06:37:55;14.13;;;10.90;;
20080;SDS011;10200;49.232;9.222;2022-08-19T06:40:21;14.43;;;10.85;;
20080;SDS011;10200;49.232;9.222;2022-08-19T06:42:46;13.48;;;10.38;;
20080;SDS011;10200;49.232;9.222;2022-08-19T06:45:12;11.75;;;9.52;;
20080;SDS011;10200;49.232;9.222;2022-08-19T06:47:38;11.80;;;9.43;;
20080;SDS011;10200;49.232;9.222;2022-08-19T06:50:03;12.02;;;9.48;;
20080;SDS011;10200;49.232;9.222;2022-08-19T06:52:30;12.32;;;9.70;;
20080;SDS011;10200;49.232;9.222;2022-08-19T06:54:57;13.75;;;9.52;;
20080;SDS011;10200;49.232;9.222;2022-08-19T06:57:24;12.88;;;9.48;;
20080;SDS011;10200;49.232;9.222;2022-08-19T06:59:50;12.32;;;8.85;;
20080;SDS011;10200;49.232;9.222;2022-08-19T07:02:17;11.30;;;8.90;;
20080;SDS011;10200;49.232;9.222;2022-08-19T07:04:43;11.02;;;8.40;;
20080;SDS011;10200;49.232;9.222;2022-08-19T07:07:09;11.18;;;8.23;;
20080;SDS011;10200;49.232;9.222;2022-08-19T07:09:38;10.60;;;8.40;;
20080;SDS011;10200;49.232;9.222;2022-08-19T07:12:06;10.10;;;8.20;;
20080;SDS011;10200;49.232;9.222;2022-08-19T07:14:34;9.40;;;8.05;;
20080;SDS011;10200;49.232;9.222;2022-08-19T07:17:10;10.80;;;8.20;;
20080;SDS011;10200;49.232;9.222;2022-08-19T07:19:37;9.05;;;7.88;;
20080;SDS011;10200;49.232;9.222;2022-08-19T07:22:04;12.25;;;8.73;;
20080;SDS011;10200;49.232;9.222;2022-08-19T07:24:31;9.20;;;7.20;;
20080;SDS011;10200;49.232;9.222;2022-08-19T07:26:59;12.50;;;8.55;;
20080;SDS011;10200;49.232;9.222;2022-08-19T07:29:28;10.00;;;7.78;;
20080;SDS011;10200;49.232;9.222;2022-08-19T07:31:55;11.18;;;7.80;;
20080;SDS011;10200;49.232;9.222;2022-08-19T07:34:24;10.60;;;7.72;;
20080;SDS011;10200;49.232;9.222;2022-08-19T07:36:51;8.60;;;7.32;;
20080;SDS011;10200;49.232;9.222;2022-08-19T07:39:19;11.07;;;7.90;;
20080;SDS011;10200;49.232;9.222;2022-08-19T07:41:47;9.00;;;7.35;;
20080;SDS011;10200;49.232;9.222;2022-08-19T07:44:15;10.45;;;7.93;;
20080;SDS011;10200;49.232;9.222;2022-08-19T07:46:41;9.40;;;8.23;;
20080;SDS011;10200;49.232;9.222;2022-08-19T07:49:13;10.90;;;8.30;;
20080;SDS011;10200;49.232;9.222;2022-08-19T07:51:44;10.73;;;7.70;;
20080;SDS011;10200;49.232;9.222;2022-08-19T07:54:11;9.52;;;7.80;;
20080;SDS011;10200;49.232;9.222;2022-08-19T07:56:37;9.80;;;8.00;;
20080;SDS011;10200;49.232;9.222;2022-08-19T07:59:03;10.80;;;7.28;;
20080;SDS011;10200;49.232;9.222;2022-08-19T08:01:29;10.60;;;7.68;;
20080;SDS011;10200;49.232;9.222;2022-08-19T08:03:56;9.57;;;7.68;;
20080;SDS011;10200;49.232;9.222;2022-08-19T08:06:41;10.88;;;8.02;;
20080;SDS011;10200;49.232;9.222;2022-08-19T08:09:33;8.10;;;7.15;;
20080;SDS011;10200;49.232;9.222;2022-08-19T08:12:05;9.90;;;8.10;;
20080;SDS011;10200;49.232;9.222;2022-08-19T08:14:39;10.95;;;7.80;;
20080;SDS011;10200;49.232;9.222;2022-08-19T08:17:11;9.57;;;6.38;;
20080;SDS011;10200;49.232;9.222;2022-08-19T08:19:37;9.07;;;7.47;;
20080;SDS011;10200;49.232;9.222;2022-08-19T08:22:06;8.80;;;7.90;;
20080;SDS011;10200;49.232;9.222;2022-08-19T08:24:33;8.07;;;7.05;;
20080;SDS011;10200;49.232;9.222;2022-08-19T08:27:00;10.30;;;7.28;;
20080;SDS011;10200;49.232;9.222;2022-08-19T08:29:27;9.38;;;7.35;;
20080;SDS011;10200;49.232;9.222;2022-08-19T08:31:54;9.05;;;7.57;;
20080;SDS011;10200;49.232;9.222;2022-08-19T08:34:20;9.18;;;7.10;;
20080;SDS011;10200;49.232;9.222;2022-08-19T08:36:46;11.48;;;8.18;;
20080;SDS011;10200;49.232;9.222;2022-08-19T08:39:14;8.82;;;7.30;;
20080;SDS011;10200;49.232;9.222;2022-08-19T08:47:20;10.48;;;7.22;;
20080;SDS011;10200;49.232;9.222;2022-08-19T08:49:52;7.38;;;5.35;;
20080;SDS011;10200;49.232;9.222;2022-08-19T08:52:28;8.32;;;7.03;;
20080;SDS011;10200;49.232;9.222;2022-08-19T08:54:57;7.63;;;6.75;;
20080;SDS011;10200;49.232;9.222;2022-08-19T09:00:23;9.60;;;7.22;;
20080;SDS011;10200;49.232;9.222;2022-08-19T09:02:51;11.38;;;6.97;;
20080;SDS011;10200;49.232;9.222;2022-08-19T09:05:19;9.35;;;7.25;;
20080;SDS011;10200;49.232;9.222;2022-08-19T09:11:07;7.90;;;6.80;;
20080;SDS011;10200;49.232;9.222;2022-08-19T09:13:44;7.93;;;7.05;;
20080;SDS011;10200;49.232;9.222;2022-08-19T09:16:35;9.57;;;6.80;;
20080;SDS011;10200;49.232;9.222;2022-08-19T09:19:05;10.82;;;7.18;;
20080;SDS011;10200;49.232;9.222;2022-08-19T09:21:32;6.63;;;5.40;;
20080;SDS011;10200;49.232;9.222;2022-08-19T09:23:59;7.13;;;6.43;;
20080;SDS011;10200;49.232;9.222;2022-08-19T09:26:26;7.30;;;6.40;;
20080;SDS011;10200;49.232;9.222;2022-08-19T09:28:52;9.65;;;6.15;;
20080;SDS011;10200;49.232;9.222;2022-08-19T09:31:20;8.90;;;6.30;;
20080;SDS011;10200;49.232;9.222;2022-08-19T09:33:48;8.65;;;6.18;;
20080;SDS011;10200;49.232;9.222;2022-08-19T09:36:16;10.07;;;6.43;;
20080;SDS011;10200;49.232;9.222;2022-08-19T09:38:43;8.40;;;6.65;;
20080;SDS011;10200;49.232;9.222;2022-08-19T09:41:12;5.80;;;4.95;;
20080;SDS011;10200;49.232;9.222;2022-08-19T09:43:47;10.65;;;6.13;;
20080;SDS011;10200;49.232;9.222;2022-08-19T09:46:17;5.70;;;5.13;;
20080;SDS011;10200;49.232;9.222;2022-08-19T09:48:45;6.43;;;4.38;;
20080;SDS011;10200;49.232;9.222;2022-08-19T09:51:13;12.27;;;4.45;;
20080;SDS011;10200;49.232;9.222;2022-08-19T09:53:43;4.95;;;4.25;;
20080;SDS011;10200;49.232;9.222;2022-08-19T09:56:10;5.70;;;3.30;;
20080;SDS011;10200;49.232;9.222;2022-08-19T09:58:37;4.25;;;3.40;;
20080;SDS011;10200;49.232;9.222;2022-08-19T10:01:04;3.92;;;3.50;;
20080;SDS011;10200;49.232;9.222;2022-08-19T10:03:31;6.03;;;3.72;;
20080;SDS011;10200;49.232;9.222;2022-08-19T10:05:58;6.45;;;3.95;;
20080;SDS011;10200;49.232;9.222;2022-08-19T10:08:27;3.75;;;3.35;;
20080;SDS011;10200;49.232;9.222;2022-08-19T10:10:55;4.95;;;3.92;;
20080;SDS011;10200;49.232;9.222;2022-08-19T10:13:23;4.30;;;3.30;;
20080;SDS011;10200;49.232;9.222;2022-08-19T10:15:52;4.70;;;3.45;;
20080;SDS011;10200;49.232;9.222;2022-08-19T10:18:20;3.75;;;3.28;;
20080;SDS011;10200;49.232;9.222;2022-08-19T10:20:47;5.10;;;3.88;;
20080;SDS011;10200;49.232;9.222;2022-08-19T10:23:15;3.75;;;3.17;;
20080;SDS011;10200;49.232;9.222;2022-08-19T10:25:41;4.53;;;3.42;;
20080;SDS011;10200;49.232;9.222;2022-08-19T10:28:07;4.88;;;3.72;;
20080;SDS011;10200;49.232;9.222;2022-08-19T10:30:35;5.35;;;4.10;;
20080;SDS011;10200;49.232;9.222;2022-08-19T10:33:00;3.45;;;3.15;;
20080;SDS011;10200;49.232;9.222;2022-08-19T10:35:26;4.00;;;3.60;;
20080;SDS011;10200;49.232;9.222;2022-08-19T10:37:54;4.32;;;3.25;;
20080;SDS011;10200;49.232;9.222;2022-08-19T10:40:24;4.15;;;3.67;;
20080;SDS011;10200;49.232;9.222;2022-08-19T10:42:50;3.65;;;3.28;;
20080;SDS011;10200;49.232;9.222;2022-08-19T10:45:16;4.10;;;3.70;;
20080;SDS011;10200;49.232;9.222;2022-08-19T10:47:42;4.00;;;3.60;;
20080;SDS011;10200;49.232;9.222;2022-08-19T10:50:07;3.75;;;3.25;;
20080;SDS011;10200;49.232;9.222;2022-08-19T10:52:51;3.65;;;3.35;;
20080;SDS011;10200;49.232;9.222;2022-08-19T10:55:18;3.00;;;2.80;;
20080;SDS011;10200;49.232;9.222;2022-08-19T10:58:09;3.22;;;2.75;;
20080;SDS011;10200;49.232;9.222;2022-08-19T11:00:39;3.40;;;2.95;;
20080;SDS011;10200;49.232;9.222;2022-08-19T11:03:07;3.80;;;2.92;;
20080;SDS011;10200;49.232;9.222;2022-08-19T11:05:33;4.28;;;3.13;;
20080;SDS011;10200;49.232;9.222;2022-08-19T11:07:59;2.85;;;2.65;;
20080;SDS011;10200;49.232;9.222;2022-08-19T11:10:24;2.70;;;2.50;;
20080;SDS011;10200;49.232;9.222;2022-08-19T11:12:50;3.58;;;2.58;;
20080;SDS011;10200;49.232;9.222;2022-08-19T11:15:20;2.67;;;2.20;;
20080;SDS011;10200;49.232;9.222;2022-08-19T11:17:46;2.40;;;2.20;;
20080;SDS011;10200;49.232;9.222;2022-08-19T11:20:12;3.10;;;2.55;;
20080;SDS011;10200;49.232;9.222;2022-08-19T11:22:38;2.90;;;2.53;;
20080;SDS011;10200;49.232;9.222;2022-08-19T11:25:05;2.70;;;2.50;;
20080;SDS011;10200;49.232;9.222;2022-08-19T11:27:31;2.45;;;2.25;;
20080;SDS011;10200;49.232;9.222;2022-08-19T11:29:57;3.60;;;2.50;;
20080;SDS011;10200;49.232;9.222;2022-08-19T11:32:22;3.35;;;2.50;;
20080;SDS011;10200;49.232;9.222;2022-08-19T11:34:48;4.00;;;3.33;;
20080;SDS011;10200;49.232;9.222;2022-08-19T11:37:14;4.50;;;2.97;;
20080;SDS011;10200;49.232;9.222;2022-08-19T11:39:40;5.88;;;3.08;;
20080;SDS011;10200;49.232;9.222;2022-08-19T11:42:06;3.25;;;2.67;;
20080;SDS011;10200;49.232;9.222;2022-08-19T11:44:52;3.47;;;3.17;;
20080;SDS011;10200;49.232;9.222;2022-08-19T11:47:18;3.60;;;2.50;;
20080;SDS011;10200;49.232;9.222;2022-08-19T11:49:45;3.53;;;2.95;;
20080;SDS011;10200;49.232;9.222;2022-08-19T11:52:11;3.55;;;2.88;;
20080;SDS011;10200;49.232;9.222;2022-08-19T11:54:37;2.55;;;2.08;;
20080;SDS011;10200;49.232;9.222;2022-08-19T11:57:03;3.17;;;2.90;;
20080;SDS011;10200;49.232;9.222;2022-08-19T11:59:29;3.10;;;2.80;;
20080;SDS011;10200;49.232;9.222;2022-08-19T12:01:54;5.25;;;2.92;;
20080;SDS011;10200;49.232;9.222;2022-08-19T12:04:20;5.32;;;2.72;;
20080;SDS011;10200;49.232;9.222;2022-08-19T12:06:46;3.03;;;2.75;;
20080;SDS011;10200;49.232;9.222;2022-08-19T12:09:12;3.25;;;2.95;;
20080;SDS011;10200;49.232;9.222;2022-08-19T12:11:39;3.45;;;3.15;;
20080;SDS011;10200;49.232;9.222;2022-08-19T12:14:05;2.83;;;2.63;;
20080;SDS011;10200;49.232;9.222;2022-08-19T12:16:33;3.15;;;2.85;;
20080;SDS011;10200;49.232;9.222;2022-08-19T12:18:59;3.40;;;2.95;;
20080;SDS011;10200;49.232;9.222;2022-08-19T12:21:28;3.10;;;2.60;;
20080;SDS011;10200;49.232;9.222;2022-08-19T12:23:56;3.50;;;3.20;;
20080;SDS011;10200;49.232;9.222;2022-08-19T12:26:23;3.15;;;2.78;;
20080;SDS011;10200;49.232;9.222;2022-08-19T12:28:50;2.92;;;2.67;;
20080;SDS011;10200;49.232;9.222;2022-08-19T12:31:16;2.88;;;2.58;;
20080;SDS011;10200;49.232;9.222;2022-08-19T12:33:44;3.85;;;2.88;;
20080;SDS011;10200;49.232;9.222;2022-08-19T12:36:12;4.53;;;3.05;;
20080;SDS011;10200;49.232;9.222;2022-08-19T12:38:39;4.65;;;3.10;;
20080;SDS011;10200;49.232;9.222;2022-08-19T12:41:05;3.75;;;2.63;;
20080;SDS011;10200;49.232;9.222;2022-08-19T12:43:35;3.20;;;2.90;;
20080;SDS011;10200;49.232;9.222;2022-08-19T12:46:02;3.97;;;2.85;;
20080;SDS011;10200;49.232;9.222;2022-08-19T12:48:30;3.47;;;2.75;;
20080;SDS011;10200;49.232;9.222;2022-08-19T12:50:56;2.80;;;2.60;;
20080;SDS011;10200;49.232;9.222;2022-08-19T12:53:22;2.60;;;2.35;;
20080;SDS011;10200;49.232;9.222;2022-08-19T12:55:54;2.50;;;2.30;;
20080;SDS011;10200;49.232;9.222;2022-08-19T12:58:21;4.60;;;2.85;;
20080;SDS011;10200;49.232;9.222;2022-08-19T13:00:46;2.80;;;2.30;;
20080;SDS011;10200;49.232;9.222;2022-08-19T13:03:13;2.55;;;2.28;;
20080;SDS011;10200;49.232;9.222;2022-08-19T13:05:39;3.08;;;2.58;;
20080;SDS011;10200;49.232;9.222;2022-08-19T13:08:04;3.17;;;2.88;;
20080;SDS011;10200;49.232;9.222;2022-08-19T13:10:31;3.10;;;2.75;;
20080;SDS011;10200;49.232;9.222;2022-08-19T13:13:00;3.75;;;2.80;;
20080;SDS011;10200;49.232;9.222;2022-08-19T13:15:27;3.00;;;2.80;;
20080;SDS011;10200;49.232;9.222;2022-08-19T13:17:55;2.75;;;2.55;;
20080;SDS011;10200;49.232;9.222;2022-08-19T13:20:22;3.15;;;2.83;;
20080;SDS011;10200;49.232;9.222;2022-08-19T13:22:48;2.60;;;2.40;;
20080;SDS011;10200;49.232;9.222;2022-08-19T13:25:14;3.20;;;2.90;;
20080;SDS011;10200;49.232;9.222;2022-08-19T13:27:42;2.92;;;2.72;;
20080;SDS011;10200;49.232;9.222;2022-08-19T13:30:09;3.05;;;2.85;;
20080;SDS011;10200;49.232;9.222;2022-08-19T13:32:54;3.75;;;2.95;;
20080;SDS011;10200;49.232;9.222;2022-08-19T13:35:36;3.67;;;2.72;;
20080;SDS011;10200;49.232;9.222;2022-08-19T13:38:14;3.67;;;2.50;;
20080;SDS011;10200;49.232;9.222;2022-08-19T13:40:41;3.33;;;2.85;;
20080;SDS011;10200;49.232;9.222;2022-08-19T13:43:07;3.95;;;3.25;;
20080;SDS011;10200;49.232;9.222;2022-08-19T13:45:34;2.92;;;2.72;;
20080;SDS011;10200;49.232;9.222;2022-08-19T13:48:00;3.33;;;2.65;;
20080;SDS011;10200;49.232;9.222;2022-08-19T13:50:31;3.40;;;2.95;;
20080;SDS011;10200;49.232;9.222;2022-08-19T13:52:57;2.75;;;2.55;;
20080;SDS011;10200;49.232;9.222;2022-08-19T13:55:23;3.15;;;2.85;;
20080;SDS011;10200;49.232;9.222;2022-08-19T13:57:56;4.38;;;3.00;;
20080;SDS011;10200;49.232;9.222;2022-08-19T14:00:23;3.08;;;2.65;;
20080;SDS011;10200;49.232;9.222;2022-08-19T14:02:51;3.72;;;3.03;;
20080;SDS011;10200;49.232;9.222;2022-08-19T14:05:18;4.10;;;3.70;;
20080;SDS011;10200;49.232;9.222;2022-08-19T14:07:45;3.28;;;2.83;;
20080;SDS011;10200;49.232;9.222;2022-08-19T14:10:11;3.22;;;2.92;;
20080;SDS011;10200;49.232;9.222;2022-08-19T14:12:38;3.35;;;3.05;;
20080;SDS011;10200;49.232;9.222;2022-08-19T14:15:04;4.15;;;3.22;;
20080;SDS011;10200;49.232;9.222;2022-08-19T14:17:31;3.83;;;2.80;;
20080;SDS011;10200;49.232;9.222;2022-08-19T14:20:00;2.83;;;2.40;;
20080;SDS011;10200;49.232;9.222;2022-08-19T14:22:30;2.95;;;2.75;;
20080;SDS011;10200;49.232;9.222;2022-08-19T14:24:58;3.28;;;2.97;;
20080;SDS011;10200;49.232;9.222;2022-08-19T14:27:24;7.95;;;3.65;;
20080;SDS011;10200;49.232;9.222;2022-08-19T14:29:50;3.60;;;3.30;;
20080;SDS011;10200;49.232;9.222;2022-08-19T14:32:16;5.07;;;4.15;;
20080;SDS011;10200;49.232;9.222;2022-08-19T14:34:42;3.05;;;2.85;;
20080;SDS011;10200;49.232;9.222;2022-08-19T14:37:10;4.88;;;3.15;;
20080;SDS011;10200;49.232;9.222;2022-08-19T14:39:38;6.28;;;3.70;;
20080;SDS011;10200;49.232;9.222;2022-08-19T14:42:06;4.95;;;3.38;;
20080;SDS011;10200;49.232;9.222;2022-08-19T14:44:33;3.90;;;3.50;;
20080;SDS011;10200;49.232;9.222;2022-08-19T14:46:59;3.70;;;3.40;;
20080;SDS011;10200;49.232;9.222;2022-08-19T14:49:25;3.90;;;3.45;;
20080;SDS011;10200;49.232;9.222;2022-08-19T14:51:50;3.95;;;3.30;;
20080;SDS011;10200;49.232;9.222;2022-08-19T14:54:16;4.22;;;3.88;;